sensor_id;sensor_type;location;lat;lon;timestamp;temperature;humidity
26954;DHT22;14508;50.924;11.600;2022-08-19T00:01:43;20.10;99.90
26954;DHT22;14508;50.924;11.600;2022-08-19T00:04:12;20.10;99.90
26954;DHT22;14508;50.924;11.600;2022-08-19T00:06:42;20.10;99.90
26954;DHT22;14508;50.924;11.600;2022-08-19T00:09:11;20.10;99.90
26954;DHT22;14508;50.924;11.600;2022-08-19T00:11:39;20.00;99.90
26954;DHT22;14508;50.924;11.600;2022-08-19T00:14:08;20.00;99.90
26954;DHT22;14508;50.924;11.600;2022-08-19T00:16:37;20.00;99.90
26954;DHT22;14508;50.924;11.600;2022-08-19T00:19:04;19.90;99.90
26954;DHT22;14508;50.924;11.600;2022-08-19T00:21:31;20.00;99.90
26954;DHT22;14508;50.924;11.600;2022-08-19T00:23:58;19.90;99.90
26954;DHT22;14508;50.924;11.600;2022-08-19T00:26:26;19.90;99.90
26954;DHT22;14508;50.924;11.600;2022-08-19T00:28:53;19.90;99.90
26954;DHT22;14508;50.924;11.600;2022-08-19T00:31:20;19.90;99.90
26954;DHT22;14508;50.924;11.600;2022-08-19T00:33:48;19.90;99.90
26954;DHT22;14508;50.924;11.600;2022-08-19T00:36:16;19.90;99.90
26954;DHT22;14508;50.924;11.600;2022-08-19T00:38:43;19.90;99.90
26954;DHT22;14508;50.924;11.600;2022-08-19T00:41:12;19.90;99.90
26954;DHT22;14508;50.924;11.600;2022-08-19T00:43:39;19.90;99.90
26954;DHT22;14508;50.924;11.600;2022-08-19T00:46:06;19.90;99.90
26954;DHT22;14508;50.924;11.600;2022-08-19T00:48:34;19.90;99.90
26954;DHT22;14508;50.924;11.600;2022-08-19T00:51:04;19.90;99.90
26954;DHT22;14508;50.924;11.600;2022-08-19T00:53:31;19.90;99.90
26954;DHT22;14508;50.924;11.600;2022-08-19T00:56:01;19.90;99.90
26954;DHT22;14508;50.924;11.600;2022-08-19T00:58:32;19.90;99.90
26954;DHT22;14508;50.924;11.600;2022-08-19T01:00:59;19.90;99.90
26954;DHT22;14508;50.924;11.600;2022-08-19T01:03:27;19.90;99.90
26954;DHT22;14508;50.924;11.600;2022-08-19T01:05:54;19.90;99.90
26954;DHT22;14508;50.924;11.600;2022-08-19T01:08:22;19.90;99.90
26954;DHT22;14508;50.924;11.600;2022-08-19T01:10:51;19.90;99.90
26954;DHT22;14508;50.924;11.600;2022-08-19T01:13:21;19.80;99.90
26954;DHT22;14508;50.924;11.600;2022-08-19T01:15:52;19.80;99.90
26954;DHT22;14508;50.924;11.600;2022-08-19T01:18:20;19.80;99.90
26954;DHT22;14508;50.924;11.600;2022-08-19T01:20:47;19.80;99.90
26954;DHT22;14508;50.924;11.600;2022-08-19T01:23:16;19.80;99.90
26954;DHT22;14508;50.924;11.600;2022-08-19T01:25:45;19.70;99.90
26954;DHT22;14508;50.924;11.600;2022-08-19T01:28:18;19.70;99.90
26954;DHT22;14508;50.924;11.600;2022-08-19T01:30:45;19.70;99.90
26954;DHT22;14508;50.924;11.600;2022-08-19T01:33:13;19.70;99.90
26954;DHT22;14508;50.924;11.600;2022-08-19T01:35:41;19.70;99.90
26954;DHT22;14508;50.924;11.600;2022-08-19T01:38:10;19.70;99.90
26954;DHT22;14508;50.924;11.600;2022-08-19T01:40:46;19.70;99.90
26954;DHT22;14508;50.924;11.600;2022-08-19T01:43:13;19.60;99.90
26954;DHT22;14508;50.924;11.600;2022-08-19T01:45:40;19.60;99.90
26954;DHT22;14508;50.924;11.600;2022-08-19T01:48:07;19.70;99.90
26954;DHT22;14508;50.924;11.600;2022-08-19T01:50:35;19.60;99.90
26954;DHT22;14508;50.924;11.600;2022-08-19T01:53:03;19.70;99.90
26954;DHT22;14508;50.924;11.600;2022-08-19T01:55:31;19.60;99.90
26954;DHT22;14508;50.924;11.600;2022-08-19T01:58:02;19.60;99.90
26954;DHT22;14508;50.924;11.600;2022-08-19T02:00:32;19.50;99.90
26954;DHT22;14508;50.924;11.600;2022-08-19T02:02:59;19.50;99.90
26954;DHT22;14508;50.924;11.600;2022-08-19T02:05:26;19.50;99.90
26954;DHT22;14508;50.924;11.600;2022-08-19T02:07:55;19.50;99.90
26954;DHT22;14508;50.924;11.600;2022-08-19T02:10:22;19.50;99.90
26954;DHT22;14508;50.924;11.600;2022-08-19T02:12:50;19.50;99.90
26954;DHT22;14508;50.924;11.600;2022-08-19T02:15:20;19.50;99.90
26954;DHT22;14508;50.924;11.600;2022-08-19T02:17:47;19.50;99.90
26954;DHT22;14508;50.924;11.600;2022-08-19T02:20:15;19.40;99.90
26954;DHT22;14508;50.924;11.600;2022-08-19T02:22:42;19.40;99.90
26954;DHT22;14508;50.924;11.600;2022-08-19T02:25:10;19.40;99.90
26954;DHT22;14508;50.924;11.600;2022-08-19T02:27:37;19.40;99.90
26954;DHT22;14508;50.924;11.600;2022-08-19T02:30:06;19.40;99.90
26954;DHT22;14508;50.924;11.600;2022-08-19T02:32:34;19.40;99.90
26954;DHT22;14508;50.924;11.600;2022-08-19T02:35:01;19.40;99.90
26954;DHT22;14508;50.924;11.600;2022-08-19T02:37:28;19.40;99.90
26954;DHT22;14508;50.924;11.600;2022-08-19T02:40:10;19.40;99.90
26954;DHT22;14508;50.924;11.600;2022-08-19T02:42:37;19.40;99.90
26954;DHT22;14508;50.924;11.600;2022-08-19T02:45:04;19.40;99.90
26954;DHT22;14508;50.924;11.600;2022-08-19T02:47:31;19.40;99.90
26954;DHT22;14508;50.924;11.600;2022-08-19T02:50:00;19.40;99.90
26954;DHT22;14508;50.924;11.600;2022-08-19T02:52:28;19.40;99.90
26954;DHT22;14508;50.924;11.600;2022-08-19T02:54:54;19.40;99.90
26954;DHT22;14508;50.924;11.600;2022-08-19T02:57:22;19.50;99.90
26954;DHT22;14508;50.924;11.600;2022-08-19T02:59:49;19.50;99.90
26954;DHT22;14508;50.924;11.600;2022-08-19T03:02:16;19.50;99.90
26954;DHT22;14508;50.924;11.600;2022-08-19T03:04:43;19.50;99.90
26954;DHT22;14508;50.924;11.600;2022-08-19T03:07:15;19.50;99.90
26954;DHT22;14508;50.924;11.600;2022-08-19T03:09:42;19.60;99.90
26954;DHT22;14508;50.924;11.600;2022-08-19T03:12:09;19.60;99.90
26954;DHT22;14508;50.924;11.600;2022-08-19T03:14:36;19.60;99.90
26954;DHT22;14508;50.924;11.600;2022-08-19T03:17:04;19.60;99.90
26954;DHT22;14508;50.924;11.600;2022-08-19T03:19:30;19.60;99.90
26954;DHT22;14508;50.924;11.600;2022-08-19T03:21:57;19.60;99.90
26954;DHT22;14508;50.924;11.600;2022-08-19T03:24:26;19.60;99.90
26954;DHT22;14508;50.924;11.600;2022-08-19T03:26:54;19.60;99.90
26954;DHT22;14508;50.924;11.600;2022-08-19T03:29:24;19.70;99.90
26954;DHT22;14508;50.924;11.600;2022-08-19T03:31:51;19.70;99.90
26954;DHT22;14508;50.924;11.600;2022-08-19T03:34:21;19.60;99.90
26954;DHT22;14508;50.924;11.600;2022-08-19T03:36:48;19.70;99.90
26954;DHT22;14508;50.924;11.600;2022-08-19T03:39:15;19.70;99.90
26954;DHT22;14508;50.924;11.600;2022-08-19T03:41:45;19.70;99.90
26954;DHT22;14508;50.924;11.600;2022-08-19T03:44:12;19.70;99.90
26954;DHT22;14508;50.924;11.600;2022-08-19T03:46:39;19.70;99.90
26954;DHT22;14508;50.924;11.600;2022-08-19T03:49:06;19.70;99.90
26954;DHT22;14508;50.924;11.600;2022-08-19T03:51:36;19.70;99.90
26954;DHT22;14508;50.924;11.600;2022-08-19T03:54:05;19.70;99.90
26954;DHT22;14508;50.924;11.600;2022-08-19T03:56:34;19.70;99.90
26954;DHT22;14508;50.924;11.600;2022-08-19T03:59:03;19.70;99.90
26954;DHT22;14508;50.924;11.600;2022-08-19T04:01:30;19.70;99.90
26954;DHT22;14508;50.924;11.600;2022-08-19T04:03:58;19.80;99.90
26954;DHT22;14508;50.924;11.600;2022-08-19T04:06:27;19.70;99.90
26954;DHT22;14508;50.924;11.600;2022-08-19T04:08:57;19.80;99.90
26954;DHT22;14508;50.924;11.600;2022-08-19T04:11:26;19.80;99.90
26954;DHT22;14508;50.924;11.600;2022-08-19T04:13:54;19.80;99.90
26954;DHT22;14508;50.924;11.600;2022-08-19T04:16:24;19.80;99.90
26954;DHT22;14508;50.924;11.600;2022-08-19T04:18:54;19.80;99.90
26954;DHT22;14508;50.924;11.600;2022-08-19T04:21:24;19.80;99.90
26954;DHT22;14508;50.924;11.600;2022-08-19T04:23:52;19.80;99.90
26954;DHT22;14508;50.924;11.600;2022-08-19T04:26:23;19.80;99.90
26954;DHT22;14508;50.924;11.600;2022-08-19T04:28:50;19.80;99.90
26954;DHT22;14508;50.924;11.600;2022-08-19T04:31:20;19.80;99.90
26954;DHT22;14508;50.924;11.600;2022-08-19T04:33:48;19.80;99.90
26954;DHT22;14508;50.924;11.600;2022-08-19T04:36:20;19.80;99.90
26954;DHT22;14508;50.924;11.600;2022-08-19T04:38:47;19.80;99.90
26954;DHT22;14508;50.924;11.600;2022-08-19T04:41:14;19.80;99.90
26954;DHT22;14508;50.924;11.600;2022-08-19T04:43:58;19.80;99.90
26954;DHT22;14508;50.924;11.600;2022-08-19T04:46:25;19.80;99.90
26954;DHT22;14508;50.924;11.600;2022-08-19T04:48:55;19.70;99.90
26954;DHT22;14508;50.924;11.600;2022-08-19T04:51:23;19.70;99.90
26954;DHT22;14508;50.924;11.600;2022-08-19T04:53:49;19.80;99.90
26954;DHT22;14508;50.924;11.600;2022-08-19T04:56:19;19.70;99.90
26954;DHT22;14508;50.924;11.600;2022-08-19T04:58:48;19.70;99.90
26954;DHT22;14508;50.924;11.600;2022-08-19T05:01:18;19.70;99.90
26954;DHT22;14508;50.924;11.600;2022-08-19T05:03:45;19.70;99.90
26954;DHT22;14508;50.924;11.600;2022-08-19T05:06:15;19.80;99.90
26954;DHT22;14508;50.924;11.600;2022-08-19T05:08:43;19.80;99.90
26954;DHT22;14508;50.924;11.600;2022-08-19T05:11:12;19.80;99.90
26954;DHT22;14508;50.924;11.600;2022-08-19T05:13:40;19.80;99.90
26954;DHT22;14508;50.924;11.600;2022-08-19T05:16:08;19.80;99.90
26954;DHT22;14508;50.924;11.600;2022-08-19T05:18:36;19.90;99.90
26954;DHT22;14508;50.924;11.600;2022-08-19T05:21:22;19.90;99.90
26954;DHT22;14508;50.924;11.600;2022-08-19T05:24:08;19.90;99.90
26954;DHT22;14508;50.924;11.600;2022-08-19T05:26:34;20.00;99.90
26954;DHT22;14508;50.924;11.600;2022-08-19T05:29:01;19.90;99.90
26954;DHT22;14508;50.924;11.600;2022-08-19T05:31:28;20.00;99.90
26954;DHT22;14508;50.924;11.600;2022-08-19T05:33:55;20.00;99.90
26954;DHT22;14508;50.924;11.600;2022-08-19T05:36:25;20.00;99.90
26954;DHT22;14508;50.924;11.600;2022-08-19T05:38:52;20.00;99.90
26954;DHT22;14508;50.924;11.600;2022-08-19T05:41:20;20.00;99.90
26954;DHT22;14508;50.924;11.600;2022-08-19T05:43:54;20.00;99.90
26954;DHT22;14508;50.924;11.600;2022-08-19T05:46:21;20.00;99.90
26954;DHT22;14508;50.924;11.600;2022-08-19T05:48:48;20.00;99.90
26954;DHT22;14508;50.924;11.600;2022-08-19T05:51:15;20.10;99.90
26954;DHT22;14508;50.924;11.600;2022-08-19T05:53:43;20.10;99.90
26954;DHT22;14508;50.924;11.600;2022-08-19T05:56:12;20.10;99.90
26954;DHT22;14508;50.924;11.600;2022-08-19T05:58:40;20.10;99.90
26954;DHT22;14508;50.924;11.600;2022-08-19T06:01:11;20.00;99.90
26954;DHT22;14508;50.924;11.600;2022-08-19T06:03:39;20.00;99.90
26954;DHT22;14508;50.924;11.600;2022-08-19T06:06:06;20.00;99.90
26954;DHT22;14508;50.924;11.600;2022-08-19T06:08:34;20.00;99.90
26954;DHT22;14508;50.924;11.600;2022-08-19T06:11:15;20.10;99.90
26954;DHT22;14508;50.924;11.600;2022-08-19T06:13:42;20.10;99.90
26954;DHT22;14508;50.924;11.600;2022-08-19T06:16:10;20.10;99.90
26954;DHT22;14508;50.924;11.600;2022-08-19T06:18:37;20.10;99.90
26954;DHT22;14508;50.924;11.600;2022-08-19T06:21:04;20.10;99.90
26954;DHT22;14508;50.924;11.600;2022-08-19T06:23:30;20.10;99.90
26954;DHT22;14508;50.924;11.600;2022-08-19T06:26:02;20.10;99.90
26954;DHT22;14508;50.924;11.600;2022-08-19T06:28:31;20.10;99.90
26954;DHT22;14508;50.924;11.600;2022-08-19T06:30:58;20.10;99.90
26954;DHT22;14508;50.924;11.600;2022-08-19T06:33:25;20.10;99.90
26954;DHT22;14508;50.924;11.600;2022-08-19T06:35:52;20.10;99.90
26954;DHT22;14508;50.924;11.600;2022-08-19T06:38:19;20.10;99.90
26954;DHT22;14508;50.924;11.600;2022-08-19T06:40:48;20.10;99.90
26954;DHT22;14508;50.924;11.600;2022-08-19T06:43:15;20.20;99.90
26954;DHT22;14508;50.924;11.600;2022-08-19T06:45:43;20.20;99.90
26954;DHT22;14508;50.924;11.600;2022-08-19T06:48:12;20.20;99.90
26954;DHT22;14508;50.924;11.600;2022-08-19T06:50:39;20.20;99.90
26954;DHT22;14508;50.924;11.600;2022-08-19T06:53:05;20.20;99.90
26954;DHT22;14508;50.924;11.600;2022-08-19T06:55:32;20.20;99.90
26954;DHT22;14508;50.924;11.600;2022-08-19T06:58:01;20.20;99.90
26954;DHT22;14508;50.924;11.600;2022-08-19T07:00:29;20.20;99.90
26954;DHT22;14508;50.924;11.600;2022-08-19T07:02:57;20.20;99.90
26954;DHT22;14508;50.924;11.600;2022-08-19T07:05:23;20.20;99.90
26954;DHT22;14508;50.924;11.600;2022-08-19T07:07:50;20.20;99.90
26954;DHT22;14508;50.924;11.600;2022-08-19T07:10:17;20.20;99.90
26954;DHT22;14508;50.924;11.600;2022-08-19T07:12:45;20.20;99.90
26954;DHT22;14508;50.924;11.600;2022-08-19T07:15:17;20.20;99.90
26954;DHT22;14508;50.924;11.600;2022-08-19T07:17:43;20.20;99.90
26954;DHT22;14508;50.924;11.600;2022-08-19T07:20:12;20.20;99.90
26954;DHT22;14508;50.924;11.600;2022-08-19T07:22:40;20.20;99.90
26954;DHT22;14508;50.924;11.600;2022-08-19T07:25:08;20.20;99.90
26954;DHT22;14508;50.924;11.600;2022-08-19T07:27:36;20.20;99.90
26954;DHT22;14508;50.924;11.600;2022-08-19T07:30:04;20.20;99.90
26954;DHT22;14508;50.924;11.600;2022-08-19T07:32:31;20.20;99.90
26954;DHT22;14508;50.924;11.600;2022-08-19T07:34:57;20.20;99.90
26954;DHT22;14508;50.924;11.600;2022-08-19T07:37:27;20.20;99.90
26954;DHT22;14508;50.924;11.600;2022-08-19T07:39:54;20.20;99.90
26954;DHT22;14508;50.924;11.600;2022-08-19T07:42:21;20.20;99.90
26954;DHT22;14508;50.924;11.600;2022-08-19T07:44:48;20.30;99.90
26954;DHT22;14508;50.924;11.600;2022-08-19T07:47:14;20.30;99.90
26954;DHT22;14508;50.924;11.600;2022-08-19T07:49:42;20.30;99.90
26954;DHT22;14508;50.924;11.600;2022-08-19T07:52:09;20.30;99.90
26954;DHT22;14508;50.924;11.600;2022-08-19T07:54:39;20.40;99.90
26954;DHT22;14508;50.924;11.600;2022-08-19T07:57:07;20.40;99.90
26954;DHT22;14508;50.924;11.600;2022-08-19T07:59:34;20.40;99.90
26954;DHT22;14508;50.924;11.600;2022-08-19T08:02:01;20.50;99.90
26954;DHT22;14508;50.924;11.600;2022-08-19T08:04:28;20.50;99.90
26954;DHT22;14508;50.924;11.600;2022-08-19T08:07:13;20.50;99.90
26954;DHT22;14508;50.924;11.600;2022-08-19T08:09:59;20.50;99.90
26954;DHT22;14508;50.924;11.600;2022-08-19T08:12:29;20.60;99.90
26954;DHT22;14508;50.924;11.600;2022-08-19T08:14:58;20.60;99.90
26954;DHT22;14508;50.924;11.600;2022-08-19T08:17:28;20.50;99.90
26954;DHT22;14508;50.924;11.600;2022-08-19T08:19:55;20.50;99.90
26954;DHT22;14508;50.924;11.600;2022-08-19T08:22:33;20.50;99.90
26954;DHT22;14508;50.924;11.600;2022-08-19T08:25:21;20.50;99.90
26954;DHT22;14508;50.924;11.600;2022-08-19T08:27:48;20.40;99.90
26954;DHT22;14508;50.924;11.600;2022-08-19T08:30:18;20.40;99.90
26954;DHT22;14508;50.924;11.600;2022-08-19T08:32:45;20.40;99.90
26954;DHT22;14508;50.924;11.600;2022-08-19T08:35:14;20.30;99.90
26954;DHT22;14508;50.924;11.600;2022-08-19T08:37:42;20.30;99.90
26954;DHT22;14508;50.924;11.600;2022-08-19T08:40:18;20.20;99.90
26954;DHT22;14508;50.924;11.600;2022-08-19T08:42:51;20.30;99.90
26954;DHT22;14508;50.924;11.600;2022-08-19T08:45:20;20.30;99.90
26954;DHT22;14508;50.924;11.600;2022-08-19T08:47:50;20.30;99.90
26954;DHT22;14508;50.924;11.600;2022-08-19T08:50:20;20.30;99.90
26954;DHT22;14508;50.924;11.600;2022-08-19T08:52:50;20.30;99.90
26954;DHT22;14508;50.924;11.600;2022-08-19T08:55:26;20.20;99.90
26954;DHT22;14508;50.924;11.600;2022-08-19T08:57:58;20.30;99.90
26954;DHT22;14508;50.924;11.600;2022-08-19T09:00:28;20.20;99.90
26954;DHT22;14508;50.924;11.600;2022-08-19T09:03:21;20.20;99.90
26954;DHT22;14508;50.924;11.600;2022-08-19T09:05:56;20.20;99.90
26954;DHT22;14508;50.924;11.600;2022-08-19T09:08:33;20.20;99.90
26954;DHT22;14508;50.924;11.600;2022-08-19T09:11:08;20.10;99.90
26954;DHT22;14508;50.924;11.600;2022-08-19T09:13:41;20.10;99.90
26954;DHT22;14508;50.924;11.600;2022-08-19T09:16:15;20.10;99.90
26954;DHT22;14508;50.924;11.600;2022-08-19T09:18:43;20.00;99.90
26954;DHT22;14508;50.924;11.600;2022-08-19T09:21:11;20.00;99.90
26954;DHT22;14508;50.924;11.600;2022-08-19T09:23:38;20.00;99.90
26954;DHT22;14508;50.924;11.600;2022-08-19T09:26:10;19.90;99.90
26954;DHT22;14508;50.924;11.600;2022-08-19T09:28:40;19.80;99.90
26954;DHT22;14508;50.924;11.600;2022-08-19T09:31:09;19.90;99.90
26954;DHT22;14508;50.924;11.600;2022-08-19T09:33:39;19.80;99.90
26954;DHT22;14508;50.924;11.600;2022-08-19T09:36:11;19.70;99.90
26954;DHT22;14508;50.924;11.600;2022-08-19T09:38:39;19.60;99.90
26954;DHT22;14508;50.924;11.600;2022-08-19T09:41:10;19.70;99.90
26954;DHT22;14508;50.924;11.600;2022-08-19T09:43:39;19.70;99.90
26954;DHT22;14508;50.924;11.600;2022-08-19T09:46:07;19.80;99.90
26954;DHT22;14508;50.924;11.600;2022-08-19T09:48:35;19.90;99.90
26954;DHT22;14508;50.924;11.600;2022-08-19T09:51:03;20.10;99.90
26954;DHT22;14508;50.924;11.600;2022-08-19T09:53:30;20.20;99.90
26954;DHT22;14508;50.924;11.600;2022-08-19T09:55:57;20.30;99.90
26954;DHT22;14508;50.924;11.600;2022-08-19T09:58:25;20.20;99.90
26954;DHT22;14508;50.924;11.600;2022-08-19T10:00:53;20.20;99.90
26954;DHT22;14508;50.924;11.600;2022-08-19T10:03:20;20.20;99.90
26954;DHT22;14508;50.924;11.600;2022-08-19T10:05:46;20.20;99.90
26954;DHT22;14508;50.924;11.600;2022-08-19T10:08:18;20.10;99.90
26954;DHT22;14508;50.924;11.600;2022-08-19T10:10:46;20.10;99.90
26954;DHT22;14508;50.924;11.600;2022-08-19T10:13:15;20.00;99.90
26954;DHT22;14508;50.924;11.600;2022-08-19T10:15:44;20.00;99.90
26954;DHT22;14508;50.924;11.600;2022-08-19T10:18:10;20.00;99.90
26954;DHT22;14508;50.924;11.600;2022-08-19T10:20:37;20.10;99.90
26954;DHT22;14508;50.924;11.600;2022-08-19T10:23:04;20.10;99.90
26954;DHT22;14508;50.924;11.600;2022-08-19T10:25:32;20.20;99.90
26954;DHT22;14508;50.924;11.600;2022-08-19T10:27:59;20.20;99.90
26954;DHT22;14508;50.924;11.600;2022-08-19T10:30:26;20.30;99.90
26954;DHT22;14508;50.924;11.600;2022-08-19T10:32:54;20.40;99.90
26954;DHT22;14508;50.924;11.600;2022-08-19T10:35:21;20.50;99.90
26954;DHT22;14508;50.924;11.600;2022-08-19T10:37:48;20.60;99.90
26954;DHT22;14508;50.924;11.600;2022-08-19T10:40:14;20.60;99.90
26954;DHT22;14508;50.924;11.600;2022-08-19T10:42:41;20.60;99.90
26954;DHT22;14508;50.924;11.600;2022-08-19T10:45:09;20.50;99.90
26954;DHT22;14508;50.924;11.600;2022-08-19T10:47:36;20.30;99.90
26954;DHT22;14508;50.924;11.600;2022-08-19T10:50:05;20.30;99.90
26954;DHT22;14508;50.924;11.600;2022-08-19T10:52:50;20.30;99.90
26954;DHT22;14508;50.924;11.600;2022-08-19T10:55:20;20.20;99.90
26954;DHT22;14508;50.924;11.600;2022-08-19T10:58:10;20.30;99.90
26954;DHT22;14508;50.924;11.600;2022-08-19T11:00:37;20.30;99.90
26954;DHT22;14508;50.924;11.600;2022-08-19T11:03:05;20.30;99.90
26954;DHT22;14508;50.924;11.600;2022-08-19T11:05:33;20.30;99.90
26954;DHT22;14508;50.924;11.600;2022-08-19T11:08:00;20.40;99.90
26954;DHT22;14508;50.924;11.600;2022-08-19T11:10:27;20.50;99.90
26954;DHT22;14508;50.924;11.600;2022-08-19T11:12:54;20.50;99.90
26954;DHT22;14508;50.924;11.600;2022-08-19T11:15:21;20.50;99.90
26954;DHT22;14508;50.924;11.600;2022-08-19T11:17:48;20.50;99.90
26954;DHT22;14508;50.924;11.600;2022-08-19T11:20:16;20.50;99.90
26954;DHT22;14508;50.924;11.600;2022-08-19T11:22:44;20.40;99.90
26954;DHT22;14508;50.924;11.600;2022-08-19T11:25:11;20.40;99.90
26954;DHT22;14508;50.924;11.600;2022-08-19T11:27:39;20.30;99.90
26954;DHT22;14508;50.924;11.600;2022-08-19T11:30:08;20.20;99.90
26954;DHT22;14508;50.924;11.600;2022-08-19T11:32:35;20.20;99.90
26954;DHT22;14508;50.924;11.600;2022-08-19T11:35:03;20.20;99.90
26954;DHT22;14508;50.924;11.600;2022-08-19T11:37:30;20.30;99.90
26954;DHT22;14508;50.924;11.600;2022-08-19T11:39:59;20.40;99.90
26954;DHT22;14508;50.924;11.600;2022-08-19T11:42:26;20.50;99.90
26954;DHT22;14508;50.924;11.600;2022-08-19T11:45:10;20.50;99.90
26954;DHT22;14508;50.924;11.600;2022-08-19T11:47:37;20.70;99.90
26954;DHT22;14508;50.924;11.600;2022-08-19T11:50:05;20.80;99.90
26954;DHT22;14508;50.924;11.600;2022-08-19T11:52:31;21.00;99.90
26954;DHT22;14508;50.924;11.600;2022-08-19T11:55:00;21.20;99.90
26954;DHT22;14508;50.924;11.600;2022-08-19T11:57:26;21.40;99.90
26954;DHT22;14508;50.924;11.600;2022-08-19T11:59:53;21.50;99.90
26954;DHT22;14508;50.924;11.600;2022-08-19T12:02:19;21.60;99.90
26954;DHT22;14508;50.924;11.600;2022-08-19T12:04:47;21.70;99.90
26954;DHT22;14508;50.924;11.600;2022-08-19T12:07:13;21.80;99.90
26954;DHT22;14508;50.924;11.600;2022-08-19T12:09:40;21.90;99.90
26954;DHT22;14508;50.924;11.600;2022-08-19T12:12:09;22.00;99.90
26954;DHT22;14508;50.924;11.600;2022-08-19T12:14:36;22.20;99.90
26954;DHT22;14508;50.924;11.600;2022-08-19T12:17:03;22.30;99.90
26954;DHT22;14508;50.924;11.600;2022-08-19T12:19:33;22.50;99.90
26954;DHT22;14508;50.924;11.600;2022-08-19T12:22:00;22.60;99.90
26954;DHT22;14508;50.924;11.600;2022-08-19T12:24:30;22.80;99.90
26954;DHT22;14508;50.924;11.600;2022-08-19T12:26:57;22.80;99.90
26954;DHT22;14508;50.924;11.600;2022-08-19T12:29:28;22.90;99.90
26954;DHT22;14508;50.924;11.600;2022-08-19T12:31:56;23.00;99.90
26954;DHT22;14508;50.924;11.600;2022-08-19T12:34:28;23.10;99.90
26954;DHT22;14508;50.924;11.600;2022-08-19T12:36:56;23.20;99.90
26954;DHT22;14508;50.924;11.600;2022-08-19T12:39:23;23.20;99.90
26954;DHT22;14508;50.924;11.600;2022-08-19T12:41:50;23.40;99.90
26954;DHT22;14508;50.924;11.600;2022-08-19T12:44:17;23.50;99.90
26954;DHT22;14508;50.924;11.600;2022-08-19T12:46:46;23.70;99.90
26954;DHT22;14508;50.924;11.600;2022-08-19T12:49:12;23.70;99.90
26954;DHT22;14508;50.924;11.600;2022-08-19T12:51:39;23.60;99.90
26954;DHT22;14508;50.924;11.600;2022-08-19T12:54:07;23.70;99.90
26954;DHT22;14508;50.924;11.600;2022-08-19T12:56:36;23.60;99.90
26954;DHT22;14508;50.924;11.600;2022-08-19T12:59:03;23.50;99.90
26954;DHT22;14508;50.924;11.600;2022-08-19T13:01:30;23.50;99.90
26954;DHT22;14508;50.924;11.600;2022-08-19T13:03:59;23.50;99.90
26954;DHT22;14508;50.924;11.600;2022-08-19T13:06:26;23.50;99.90
26954;DHT22;14508;50.924;11.600;2022-08-19T13:08:54;23.50;99.90
26954;DHT22;14508;50.924;11.600;2022-08-19T13:11:21;23.60;99.90
26954;DHT22;14508;50.924;11.600;2022-08-19T13:13:50;23.60;99.90
26954;DHT22;14508;50.924;11.600;2022-08-19T13:16:18;23.70;99.90
26954;DHT22;14508;50.924;11.600;2022-08-19T13:18:46;23.70;99.90
26954;DHT22;14508;50.924;11.600;2022-08-19T13:21:15;23.70;99.90
26954;DHT22;14508;50.924;11.600;2022-08-19T13:23:42;23.70;99.90
26954;DHT22;14508;50.924;11.600;2022-08-19T13:26:11;23.60;99.90
26954;DHT22;14508;50.924;11.600;2022-08-19T13:28:38;23.60;99.90
26954;DHT22;14508;50.924;11.600;2022-08-19T13:31:25;23.50;99.90
26954;DHT22;14508;50.924;11.600;2022-08-19T13:34:10;23.40;99.90
26954;DHT22;14508;50.924;11.600;2022-08-19T13:36:39;23.30;99.90
26954;DHT22;14508;50.924;11.600;2022-08-19T13:39:07;23.30;99.90
26954;DHT22;14508;50.924;11.600;2022-08-19T13:41:34;23.20;99.90
26954;DHT22;14508;50.924;11.600;2022-08-19T13:44:01;23.10;99.90
26954;DHT22;14508;50.924;11.600;2022-08-19T13:46:28;23.10;99.90
26954;DHT22;14508;50.924;11.600;2022-08-19T13:48:56;23.10;99.90
26954;DHT22;14508;50.924;11.600;2022-08-19T13:51:23;23.10;99.90
26954;DHT22;14508;50.924;11.600;2022-08-19T13:53:51;23.00;99.90
26954;DHT22;14508;50.924;11.600;2022-08-19T13:56:19;22.90;99.90
26954;DHT22;14508;50.924;11.600;2022-08-19T13:58:46;22.90;99.90
26954;DHT22;14508;50.924;11.600;2022-08-19T14:01:19;22.80;99.90
26954;DHT22;14508;50.924;11.600;2022-08-19T14:03:46;22.80;99.90
26954;DHT22;14508;50.924;11.600;2022-08-19T14:06:12;22.70;99.90
26954;DHT22;14508;50.924;11.600;2022-08-19T14:08:40;22.70;99.90
26954;DHT22;14508;50.924;11.600;2022-08-19T14:11:08;22.60;99.90
26954;DHT22;14508;50.924;11.600;2022-08-19T14:13:36;22.60;99.90
26954;DHT22;14508;50.924;11.600;2022-08-19T14:16:07;22.50;99.90
26954;DHT22;14508;50.924;11.600;2022-08-19T14:18:34;22.50;99.90
26954;DHT22;14508;50.924;11.600;2022-08-19T14:21:01;22.60;99.90
26954;DHT22;14508;50.924;11.600;2022-08-19T14:23:28;22.50;99.90
26954;DHT22;14508;50.924;11.600;2022-08-19T14:26:03;22.60;99.90
26954;DHT22;14508;50.924;11.600;2022-08-19T14:28:31;22.50;99.90
26954;DHT22;14508;50.924;11.600;2022-08-19T14:30:58;22.50;99.90
26954;DHT22;14508;50.924;11.600;2022-08-19T14:33:24;22.50;99.90
26954;DHT22;14508;50.924;11.600;2022-08-19T14:35:51;22.60;99.90
26954;DHT22;14508;50.924;11.600;2022-08-19T14:38:18;22.60;99.90
26954;DHT22;14508;50.924;11.600;2022-08-19T14:40:45;22.60;99.90
26954;DHT22;14508;50.924;11.600;2022-08-19T14:43:12;22.60;99.90
26954;DHT22;14508;50.924;11.600;2022-08-19T14:45:40;22.50;99.90
26954;DHT22;14508;50.924;11.600;2022-08-19T14:48:08;22.50;99.90
26954;DHT22;14508;50.924;11.600;2022-08-19T14:50:35;22.40;99.90
26954;DHT22;14508;50.924;11.600;2022-08-19T14:53:04;22.40;99.90
26954;DHT22;14508;50.924;11.600;2022-08-19T14:55:32;22.50;99.90
26954;DHT22;14508;50.924;11.600;2022-08-19T14:57:59;22.50;99.90
26954;DHT22;14508;50.924;11.600;2022-08-19T15:00:26;22.40;99.90
26954;DHT22;14508;50.924;11.600;2022-08-19T15:02:54;22.40;99.90
26954;DHT22;14508;50.924;11.600;2022-08-19T15:05:21;22.40;99.90
26954;DHT22;14508;50.924;11.600;2022-08-19T15:07:48;22.30;99.90
26954;DHT22;14508;50.924;11.600;2022-08-19T15:10:15;22.40;99.90
26954;DHT22;14508;50.924;11.600;2022-08-19T15:12:42;22.40;99.90
26954;DHT22;14508;50.924;11.600;2022-08-19T15:15:12;22.50;99.90
26954;DHT22;14508;50.924;11.600;2022-08-19T15:17:39;22.50;99.90
26954;DHT22;14508;50.924;11.600;2022-08-19T15:20:10;22.50;99.90
26954;DHT22;14508;50.924;11.600;2022-08-19T15:22:38;22.60;99.90
26954;DHT22;14508;50.924;11.600;2022-08-19T15:25:07;22.60;99.90